FLX306 SBBR-SBCY
Flight info
| Callsign | FLX306 |
|---|---|
| Flight time | 1h 22m |
| Altitude | 32000 |
| Route | SIREM DCT LODOV DCT MABMA DCT SINIP |
| Aircraft | B738/M-SDGIJ1LRWY/SB1 |
Departure
| Time | 2026-05-08 18:15 |
|---|---|
| Airport | Presidente Juscelino Kubitschek International Airport (SBBR) |
Arrival
| Time | 2026-05-08 19:38 |
|---|---|
| Airport | Várzea Grande–Marechal Rondon International Airport (SBCY) |
| Time | Latitude | Longitude | Altitude | Speed | Heading |
|---|---|---|---|---|---|
| 2026-05-08 17:50 | -15.87124 | -47.91861 | 3472 ft | 0 kts | 176° |
| 2026-05-08 18:03 | -15.87114 | -47.91861 | 3476 ft | 4 kts | 176° |
| 2026-05-08 18:04 | -15.87091 | -47.91863 | 3462 ft | 4 kts | 164° |
| 2026-05-08 18:04 | -15.87073 | -47.91876 | 3473 ft | 4 kts | 101° |
| 2026-05-08 18:04 | -15.87072 | -47.91898 | 3474 ft | 1 kts | 86° |
| 2026-05-08 18:04 | -15.87072 | -47.91902 | 3474 ft | 0 kts | 86° |
| 2026-05-08 18:07 | -15.87071 | -47.91894 | 3474 ft | 4 kts | 86° |
| 2026-05-08 18:07 | -15.87070 | -47.91867 | 3472 ft | 4 kts | 86° |
| 2026-05-08 18:07 | -15.87068 | -47.91839 | 3473 ft | 4 kts | 86° |
| 2026-05-08 18:08 | -15.87066 | -47.91802 | 3476 ft | 7 kts | 86° |
| 2026-05-08 18:08 | -15.87063 | -47.91742 | 3475 ft | 9 kts | 86° |
| 2026-05-08 18:08 | -15.87035 | -47.91690 | 3474 ft | 9 kts | 15° |
| 2026-05-08 18:08 | -15.86968 | -47.91691 | 3473 ft | 14 kts | 357° |
| 2026-05-08 18:09 | -15.86862 | -47.91699 | 3475 ft | 15 kts | 353° |
| 2026-05-08 18:09 | -15.86759 | -47.91705 | 3475 ft | 14 kts | 355° |
| 2026-05-08 18:09 | -15.86661 | -47.91713 | 3475 ft | 14 kts | 348° |
| 2026-05-08 18:09 | -15.86604 | -47.91784 | 3473 ft | 13 kts | 299° |
| 2026-05-08 18:10 | -15.86514 | -47.91818 | 3468 ft | 16 kts | 336° |
| 2026-05-08 18:10 | -15.86498 | -47.91921 | 3468 ft | 15 kts | 266° |
| 2026-05-08 18:10 | -15.86504 | -47.92028 | 3467 ft | 15 kts | 266° |
| 2026-05-08 18:10 | -15.86510 | -47.92131 | 3467 ft | 14 kts | 265° |
| 2026-05-08 18:11 | -15.86517 | -47.92229 | 3468 ft | 13 kts | 266° |
| 2026-05-08 18:11 | -15.86522 | -47.92322 | 3471 ft | 13 kts | 266° |
| 2026-05-08 18:11 | -15.86528 | -47.92414 | 3474 ft | 13 kts | 266° |
| 2026-05-08 18:11 | -15.86534 | -47.92503 | 3475 ft | 12 kts | 265° |
| 2026-05-08 18:12 | -15.86541 | -47.92600 | 3469 ft | 16 kts | 266° |
| 2026-05-08 18:12 | -15.86549 | -47.92727 | 3459 ft | 17 kts | 274° |
| 2026-05-08 18:12 | -15.86488 | -47.92766 | 3459 ft | 9 kts | 356° |
| 2026-05-08 18:12 | -15.86479 | -47.92766 | 3459 ft | 0 kts | 356° |
| 2026-05-08 18:14 | -15.86434 | -47.92768 | 3458 ft | 14 kts | 9° |
| 2026-05-08 18:14 | -15.86356 | -47.92707 | 3459 ft | 10 kts | 65° |
| 2026-05-08 18:14 | -15.86349 | -47.92628 | 3461 ft | 33 kts | 86° |
| 2026-05-08 18:15 | -15.86319 | -47.92156 | 3467 ft | 98 kts | 86° |
| 2026-05-08 18:15 | -15.86260 | -47.91237 | 3466 ft | 155 kts | 86° |
| 2026-05-08 18:15 | -15.86197 | -47.89985 | 3762 ft | 182 kts | 86° |
| 2026-05-08 18:15 | -15.86134 | -47.88649 | 4593 ft | 186 kts | 95° |
| 2026-05-08 18:16 | -15.86641 | -47.87467 | 5472 ft | 183 kts | 138° |
| 2026-05-08 18:16 | -15.87846 | -47.87005 | 6007 ft | 201 kts | 179° |
| 2026-05-08 18:16 | -15.89343 | -47.87077 | 6252 ft | 226 kts | 181° |
| 2026-05-08 18:16 | -15.90996 | -47.87101 | 6427 ft | 249 kts | 178° |
| 2026-05-08 18:17 | -15.92806 | -47.87015 | 6587 ft | 272 kts | 174° |
| 2026-05-08 18:17 | -15.94749 | -47.87094 | 6926 ft | 288 kts | 198° |
| 2026-05-08 18:17 | -15.96440 | -47.88187 | 7667 ft | 289 kts | 221° |
| 2026-05-08 18:17 | -15.97918 | -47.89570 | 8455 ft | 290 kts | 223° |
| 2026-05-08 18:18 | -15.99457 | -47.90998 | 9175 ft | 296 kts | 222° |
| 2026-05-08 18:18 | -16.01004 | -47.92384 | 9831 ft | 294 kts | 221° |
| 2026-05-08 18:18 | -16.02581 | -47.93754 | 10034 ft | 297 kts | 221° |
| 2026-05-08 18:18 | -16.04166 | -47.95107 | 10061 ft | 295 kts | 220° |
| 2026-05-08 18:19 | -16.05779 | -47.96477 | 10194 ft | 310 kts | 220° |
| 2026-05-08 18:19 | -16.07489 | -47.97982 | 10354 ft | 333 kts | 226° |
| 2026-05-08 18:19 | -16.08908 | -47.99959 | 10529 ft | 351 kts | 242° |
| 2026-05-08 18:19 | -16.10064 | -48.02240 | 10960 ft | 361 kts | 244° |
| 2026-05-08 18:20 | -16.11232 | -48.04575 | 11571 ft | 365 kts | 243° |
| 2026-05-08 18:20 | -16.12431 | -48.06918 | 12181 ft | 369 kts | 242° |
| 2026-05-08 18:20 | -16.13668 | -48.09287 | 12766 ft | 375 kts | 242° |
| 2026-05-08 18:20 | -16.14921 | -48.11668 | 13419 ft | 377 kts | 242° |
| 2026-05-08 18:21 | -16.16188 | -48.14073 | 13976 ft | 381 kts | 242° |
| 2026-05-08 18:21 | -16.17453 | -48.16476 | 14469 ft | 386 kts | 242° |
| 2026-05-08 18:21 | -16.18745 | -48.18935 | 14976 ft | 390 kts | 242° |
| 2026-05-08 18:21 | -16.20052 | -48.21422 | 15507 ft | 393 kts | 242° |
| 2026-05-08 18:22 | -16.21378 | -48.23948 | 15806 ft | 402 kts | 242° |
| 2026-05-08 18:22 | -16.22734 | -48.26532 | 16183 ft | 408 kts | 242° |
| 2026-05-08 18:22 | -16.24145 | -48.29111 | 16636 ft | 412 kts | 237° |
| 2026-05-08 18:22 | -16.25913 | -48.31454 | 17187 ft | 412 kts | 228° |
| 2026-05-08 18:23 | -16.27852 | -48.33652 | 17686 ft | 414 kts | 227° |
| 2026-05-08 18:23 | -16.29831 | -48.35861 | 18042 ft | 420 kts | 227° |
| 2026-05-08 18:23 | -16.31831 | -48.38098 | 18477 ft | 421 kts | 227° |
| 2026-05-08 18:23 | -16.33792 | -48.40310 | 18921 ft | 422 kts | 227° |
| 2026-05-08 18:24 | -16.35780 | -48.42566 | 19278 ft | 425 kts | 227° |
| 2026-05-08 18:24 | -16.37779 | -48.44848 | 19612 ft | 428 kts | 228° |
| 2026-05-08 18:24 | -16.39783 | -48.47142 | 20046 ft | 428 kts | 228° |
| 2026-05-08 18:24 | -16.41790 | -48.49442 | 20438 ft | 430 kts | 228° |
| 2026-05-08 18:25 | -16.43806 | -48.51754 | 20782 ft | 432 kts | 228° |
| 2026-05-08 18:25 | -16.45834 | -48.54080 | 21131 ft | 435 kts | 228° |
| 2026-05-08 18:25 | -16.47871 | -48.56417 | 21485 ft | 436 kts | 229° |
| 2026-05-08 18:25 | -16.49917 | -48.58764 | 21824 ft | 438 kts | 229° |
| 2026-05-08 18:26 | -16.51977 | -48.61128 | 22157 ft | 441 kts | 228° |
| 2026-05-08 18:26 | -16.54032 | -48.63509 | 22484 ft | 442 kts | 230° |
| 2026-05-08 18:26 | -16.55842 | -48.66112 | 22807 ft | 443 kts | 241° |
| 2026-05-08 18:26 | -16.57270 | -48.68949 | 23238 ft | 441 kts | 244° |
| 2026-05-08 18:27 | -16.58652 | -48.71829 | 23377 ft | 448 kts | 244° |
| 2026-05-08 18:27 | -16.59572 | -48.73760 | 23427 ft | 452 kts | 245° |
| 2026-05-08 18:27 | -16.61443 | -48.77673 | 23682 ft | 456 kts | 245° |
| 2026-05-08 18:27 | -16.62849 | -48.80590 | 24373 ft | 442 kts | 244° |
| 2026-05-08 18:28 | -16.64222 | -48.83417 | 25084 ft | 434 kts | 244° |
| 2026-05-08 18:28 | -16.65594 | -48.86234 | 25444 ft | 435 kts | 244° |
| 2026-05-08 18:28 | -16.66971 | -48.89056 | 25653 ft | 439 kts | 244° |
| 2026-05-08 18:28 | -16.68361 | -48.91903 | 25861 ft | 442 kts | 244° |
| 2026-05-08 18:29 | -16.69760 | -48.94768 | 26154 ft | 444 kts | 244° |
| 2026-05-08 18:29 | -16.71160 | -48.97635 | 26513 ft | 443 kts | 244° |
| 2026-05-08 18:29 | -16.72561 | -49.00505 | 26806 ft | 445 kts | 244° |
| 2026-05-08 18:29 | -16.73952 | -49.03358 | 27056 ft | 447 kts | 244° |
| 2026-05-08 18:30 | -16.75364 | -49.06256 | 27334 ft | 449 kts | 244° |
| 2026-05-08 18:30 | -16.76780 | -49.09161 | 27612 ft | 450 kts | 244° |
| 2026-05-08 18:30 | -16.78199 | -49.12075 | 27889 ft | 451 kts | 244° |
| 2026-05-08 18:30 | -16.79622 | -49.14998 | 28174 ft | 452 kts | 244° |
| 2026-05-08 18:31 | -16.81045 | -49.17924 | 28514 ft | 451 kts | 244° |
| 2026-05-08 18:31 | -16.82465 | -49.20844 | 28948 ft | 449 kts | 244° |
| 2026-05-08 18:31 | -16.83872 | -49.23738 | 29415 ft | 446 kts | 244° |
| 2026-05-08 18:31 | -16.85271 | -49.26616 | 29829 ft | 444 kts | 244° |
| 2026-05-08 18:32 | -16.86664 | -49.29485 | 30189 ft | 443 kts | 244° |
| 2026-05-08 18:32 | -16.88054 | -49.32348 | 30498 ft | 441 kts | 244° |
| 2026-05-08 18:32 | -16.89434 | -49.35194 | 30924 ft | 437 kts | 244° |
| 2026-05-08 18:32 | -16.90788 | -49.37985 | 31349 ft | 434 kts | 245° |
| 2026-05-08 18:33 | -16.91710 | -49.39885 | 31578 ft | 434 kts | 245° |
| 2026-05-08 18:33 | -16.93513 | -49.43606 | 31938 ft | 434 kts | 245° |
| 2026-05-08 18:33 | -16.96263 | -49.49287 | 31932 ft | 439 kts | 245° |
| 2026-05-08 18:34 | -16.99004 | -49.54951 | 31939 ft | 438 kts | 245° |
| 2026-05-08 18:34 | -17.01782 | -49.60699 | 31945 ft | 447 kts | 245° |
| 2026-05-08 18:35 | -17.04520 | -49.66586 | 31932 ft | 454 kts | 252° |
| 2026-05-08 18:35 | -17.05634 | -49.73070 | 31941 ft | 456 kts | 269° |
| 2026-05-08 18:36 | -17.05256 | -49.78583 | 31936 ft | 458 kts | 276° |
| 2026-05-08 18:36 | -17.04559 | -49.85214 | 31924 ft | 460 kts | 276° |
| 2026-05-08 18:37 | -17.03876 | -49.91878 | 31922 ft | 462 kts | 276° |
| 2026-05-08 18:37 | -17.03221 | -49.98560 | 31915 ft | 463 kts | 276° |
| 2026-05-08 18:38 | -17.02577 | -50.05257 | 31922 ft | 463 kts | 276° |
| 2026-05-08 18:38 | -17.01934 | -50.11933 | 31924 ft | 464 kts | 276° |
| 2026-05-08 18:39 | -17.01286 | -50.18636 | 31921 ft | 462 kts | 276° |
| 2026-05-08 18:39 | -17.00637 | -50.25316 | 31925 ft | 462 kts | 276° |
| 2026-05-08 18:40 | -16.99987 | -50.31988 | 31926 ft | 461 kts | 276° |
| 2026-05-08 18:40 | -16.99334 | -50.38652 | 31927 ft | 461 kts | 276° |
| 2026-05-08 18:41 | -16.98681 | -50.45304 | 31929 ft | 460 kts | 276° |
| 2026-05-08 18:41 | -16.98026 | -50.51957 | 31923 ft | 460 kts | 276° |
| 2026-05-08 18:42 | -16.97369 | -50.58604 | 31932 ft | 460 kts | 276° |
| 2026-05-08 18:42 | -16.96710 | -50.65250 | 31940 ft | 460 kts | 276° |
| 2026-05-08 18:43 | -16.96049 | -50.71886 | 31943 ft | 458 kts | 276° |
| 2026-05-08 18:43 | -16.95394 | -50.78456 | 31934 ft | 458 kts | 276° |
| 2026-05-08 18:44 | -16.94730 | -50.85084 | 31929 ft | 458 kts | 276° |
| 2026-05-08 18:44 | -16.94064 | -50.91712 | 31948 ft | 459 kts | 276° |
| 2026-05-08 18:45 | -16.93395 | -50.98346 | 31942 ft | 459 kts | 276° |
| 2026-05-08 18:45 | -16.92723 | -51.04986 | 31934 ft | 460 kts | 276° |
| 2026-05-08 18:46 | -16.92049 | -51.11628 | 31935 ft | 460 kts | 276° |
| 2026-05-08 18:46 | -16.91376 | -51.18235 | 31933 ft | 460 kts | 276° |
| 2026-05-08 18:47 | -16.90698 | -51.24878 | 31931 ft | 460 kts | 276° |
| 2026-05-08 18:47 | -16.90016 | -51.31528 | 31926 ft | 460 kts | 276° |
| 2026-05-08 18:48 | -16.89333 | -51.38173 | 31938 ft | 460 kts | 276° |
| 2026-05-08 18:48 | -16.88649 | -51.44810 | 31935 ft | 460 kts | 276° |
| 2026-05-08 18:49 | -16.87962 | -51.51452 | 31926 ft | 460 kts | 276° |
| 2026-05-08 18:49 | -16.87274 | -51.58083 | 31942 ft | 459 kts | 276° |
| 2026-05-08 18:50 | -16.86588 | -51.64671 | 31927 ft | 459 kts | 276° |
| 2026-05-08 18:50 | -16.85895 | -51.71305 | 31939 ft | 460 kts | 276° |
| 2026-05-08 18:51 | -16.85198 | -51.77949 | 31936 ft | 460 kts | 276° |
| 2026-05-08 18:51 | -16.84500 | -51.84590 | 31931 ft | 460 kts | 276° |
| 2026-05-08 18:52 | -16.83800 | -51.91238 | 31936 ft | 460 kts | 276° |
| 2026-05-08 18:52 | -16.83102 | -51.97836 | 31937 ft | 460 kts | 276° |
| 2026-05-08 18:53 | -16.82403 | -52.04422 | 31899 ft | 440 kts | 276° |
| 2026-05-08 18:53 | -16.82072 | -52.07537 | 31903 ft | 426 kts | 276° |
| 2026-05-08 18:53 | -16.81749 | -52.10569 | 31915 ft | 423 kts | 276° |
| 2026-05-08 18:54 | -16.81100 | -52.16653 | 31930 ft | 422 kts | 276° |
| 2026-05-08 18:54 | -16.80447 | -52.22751 | 31928 ft | 422 kts | 276° |
| 2026-05-08 18:55 | -16.79466 | -52.31893 | 31924 ft | 422 kts | 276° |
| 2026-05-08 18:56 | -16.78809 | -52.37990 | 31924 ft | 423 kts | 276° |
| 2026-05-08 18:56 | -16.78153 | -52.44058 | 31914 ft | 423 kts | 276° |
| 2026-05-08 18:57 | -16.77491 | -52.50171 | 31901 ft | 424 kts | 276° |
| 2026-05-08 18:57 | -16.76825 | -52.56293 | 31916 ft | 424 kts | 276° |
| 2026-05-08 18:58 | -16.76160 | -52.62398 | 31912 ft | 424 kts | 276° |
| 2026-05-08 18:58 | -16.75491 | -52.68521 | 31913 ft | 424 kts | 276° |
| 2026-05-08 18:59 | -16.74820 | -52.74641 | 31908 ft | 425 kts | 276° |
| 2026-05-08 18:59 | -16.74147 | -52.80770 | 31913 ft | 425 kts | 276° |
| 2026-05-08 19:00 | -16.73477 | -52.86853 | 31906 ft | 424 kts | 276° |
| 2026-05-08 19:00 | -16.72801 | -52.92974 | 31911 ft | 424 kts | 276° |
| 2026-05-08 19:01 | -16.72124 | -52.99089 | 31909 ft | 423 kts | 276° |
| 2026-05-08 19:01 | -16.71446 | -53.05194 | 31916 ft | 423 kts | 277° |
| 2026-05-08 19:02 | -16.70776 | -53.11284 | 31913 ft | 421 kts | 276° |
| 2026-05-08 19:02 | -16.70282 | -53.17287 | 31906 ft | 410 kts | 275° |
| 2026-05-08 19:03 | -16.69856 | -53.23167 | 31911 ft | 409 kts | 275° |
| 2026-05-08 19:03 | -16.69411 | -53.29102 | 31923 ft | 409 kts | 275° |
| 2026-05-08 19:04 | -16.68953 | -53.35020 | 31915 ft | 410 kts | 275° |
| 2026-05-08 19:04 | -16.68486 | -53.40944 | 31907 ft | 410 kts | 275° |
| 2026-05-08 19:05 | -16.68020 | -53.46831 | 31910 ft | 410 kts | 275° |
| 2026-05-08 19:05 | -16.67549 | -53.52762 | 31917 ft | 411 kts | 275° |
| 2026-05-08 19:06 | -16.67075 | -53.58709 | 31913 ft | 411 kts | 275° |
| 2026-05-08 19:06 | -16.66600 | -53.64653 | 31913 ft | 412 kts | 275° |
| 2026-05-08 19:07 | -16.66120 | -53.70620 | 31910 ft | 413 kts | 275° |
| 2026-05-08 19:07 | -16.65639 | -53.76593 | 31913 ft | 413 kts | 275° |
| 2026-05-08 19:08 | -16.65157 | -53.82561 | 31907 ft | 413 kts | 275° |
| 2026-05-08 19:08 | -16.64673 | -53.88529 | 31903 ft | 413 kts | 275° |
| 2026-05-08 19:09 | -16.64190 | -53.94457 | 31902 ft | 412 kts | 275° |
| 2026-05-08 19:09 | -16.63703 | -54.00410 | 31897 ft | 412 kts | 275° |
| 2026-05-08 19:10 | -16.63216 | -54.06352 | 31895 ft | 411 kts | 275° |
| 2026-05-08 19:10 | -16.62727 | -54.12297 | 31896 ft | 410 kts | 275° |
| 2026-05-08 19:11 | -16.62238 | -54.18217 | 31893 ft | 409 kts | 275° |
| 2026-05-08 19:11 | -16.61747 | -54.24140 | 31883 ft | 409 kts | 275° |
| 2026-05-08 19:12 | -16.61252 | -54.30083 | 31488 ft | 413 kts | 276° |
| 2026-05-08 19:12 | -16.61004 | -54.33063 | 31081 ft | 414 kts | 276° |
| 2026-05-08 19:12 | -16.60757 | -54.36023 | 30707 ft | 415 kts | 276° |
| 2026-05-08 19:12 | -16.60505 | -54.39026 | 30295 ft | 417 kts | 276° |
| 2026-05-08 19:13 | -16.60252 | -54.42048 | 29838 ft | 420 kts | 276° |
| 2026-05-08 19:13 | -16.59997 | -54.45088 | 29359 ft | 422 kts | 276° |
| 2026-05-08 19:13 | -16.59740 | -54.48140 | 28891 ft | 423 kts | 276° |
| 2026-05-08 19:13 | -16.59482 | -54.51203 | 28436 ft | 425 kts | 276° |
| 2026-05-08 19:14 | -16.59223 | -54.54274 | 27980 ft | 426 kts | 276° |
| 2026-05-08 19:14 | -16.58963 | -54.57362 | 27528 ft | 427 kts | 276° |
| 2026-05-08 19:14 | -16.58700 | -54.60460 | 27074 ft | 429 kts | 276° |
| 2026-05-08 19:14 | -16.58348 | -54.63549 | 26611 ft | 430 kts | 283° |
| 2026-05-08 19:15 | -16.57311 | -54.66425 | 26056 ft | 428 kts | 297° |
| 2026-05-08 19:15 | -16.55893 | -54.69150 | 25361 ft | 430 kts | 298° |
| 2026-05-08 19:15 | -16.54447 | -54.71886 | 24718 ft | 430 kts | 298° |
| 2026-05-08 19:15 | -16.53013 | -54.74607 | 24223 ft | 426 kts | 298° |
| 2026-05-08 19:16 | -16.51601 | -54.77311 | 23781 ft | 423 kts | 298° |
| 2026-05-08 19:16 | -16.50207 | -54.80001 | 23298 ft | 420 kts | 298° |
| 2026-05-08 19:16 | -16.48829 | -54.82673 | 22820 ft | 416 kts | 298° |
| 2026-05-08 19:16 | -16.47464 | -54.85331 | 22365 ft | 412 kts | 298° |
| 2026-05-08 19:17 | -16.46118 | -54.87954 | 21925 ft | 407 kts | 298° |
| 2026-05-08 19:17 | -16.44809 | -54.90506 | 21509 ft | 402 kts | 298° |
| 2026-05-08 19:17 | -16.43475 | -54.93105 | 21099 ft | 403 kts | 298° |
| 2026-05-08 19:17 | -16.42168 | -54.95650 | 20703 ft | 405 kts | 298° |
| 2026-05-08 19:18 | -16.40836 | -54.98241 | 20261 ft | 406 kts | 298° |
| 2026-05-08 19:18 | -16.39505 | -55.00832 | 19846 ft | 404 kts | 298° |
| 2026-05-08 19:18 | -16.38187 | -55.03394 | 19422 ft | 401 kts | 298° |
| 2026-05-08 19:18 | -16.36876 | -55.05943 | 19008 ft | 397 kts | 298° |
| 2026-05-08 19:19 | -16.35578 | -55.08464 | 18592 ft | 393 kts | 298° |
| 2026-05-08 19:19 | -16.34292 | -55.10962 | 18177 ft | 389 kts | 298° |
| 2026-05-08 19:19 | -16.33021 | -55.13430 | 17721 ft | 384 kts | 298° |
| 2026-05-08 19:19 | -16.31764 | -55.15871 | 17294 ft | 378 kts | 298° |
| 2026-05-08 19:20 | -16.30541 | -55.18242 | 16898 ft | 373 kts | 298° |
| 2026-05-08 19:20 | -16.30126 | -55.19049 | 16762 ft | 372 kts | 298° |
| 2026-05-08 19:20 | -16.28116 | -55.22947 | 16137 ft | 364 kts | 298° |
| 2026-05-08 19:20 | -16.26923 | -55.25261 | 15745 ft | 361 kts | 298° |
| 2026-05-08 19:21 | -16.25737 | -55.27556 | 15357 ft | 357 kts | 298° |
| 2026-05-08 19:21 | -16.24568 | -55.29821 | 14968 ft | 354 kts | 299° |
| 2026-05-08 19:21 | -16.23408 | -55.32068 | 14576 ft | 351 kts | 299° |
| 2026-05-08 19:21 | -16.22258 | -55.34294 | 14209 ft | 347 kts | 299° |
| 2026-05-08 19:22 | -16.21129 | -55.36479 | 13832 ft | 338 kts | 299° |
| 2026-05-08 19:22 | -16.20028 | -55.38610 | 13448 ft | 331 kts | 299° |
| 2026-05-08 19:22 | -16.18954 | -55.40689 | 13079 ft | 323 kts | 299° |
| 2026-05-08 19:22 | -16.18251 | -55.42048 | 12832 ft | 318 kts | 299° |
| 2026-05-08 19:23 | -16.17213 | -55.44055 | 12485 ft | 312 kts | 299° |
| 2026-05-08 19:23 | -16.16197 | -55.46020 | 12165 ft | 305 kts | 299° |
| 2026-05-08 19:23 | -16.15201 | -55.47945 | 11832 ft | 300 kts | 298° |
| 2026-05-08 19:23 | -16.14222 | -55.49837 | 11512 ft | 294 kts | 298° |
| 2026-05-08 19:24 | -16.13261 | -55.51694 | 11202 ft | 289 kts | 298° |
| 2026-05-08 19:24 | -16.12315 | -55.53519 | 10903 ft | 284 kts | 298° |
| 2026-05-08 19:24 | -16.11385 | -55.55316 | 10608 ft | 279 kts | 298° |
| 2026-05-08 19:24 | -16.10471 | -55.57081 | 10345 ft | 275 kts | 298° |
| 2026-05-08 19:25 | -16.09576 | -55.58807 | 10208 ft | 270 kts | 298° |
| 2026-05-08 19:25 | -16.08685 | -55.60524 | 10108 ft | 271 kts | 299° |
| 2026-05-08 19:25 | -16.07778 | -55.62274 | 9995 ft | 278 kts | 298° |
| 2026-05-08 19:25 | -16.06849 | -55.64067 | 9803 ft | 286 kts | 298° |
| 2026-05-08 19:26 | -16.05902 | -55.65895 | 9463 ft | 286 kts | 298° |
| 2026-05-08 19:26 | -16.04961 | -55.67707 | 9151 ft | 281 kts | 299° |
| 2026-05-08 19:26 | -16.04043 | -55.69475 | 8852 ft | 275 kts | 299° |
| 2026-05-08 19:26 | -16.03145 | -55.71204 | 8584 ft | 269 kts | 299° |
| 2026-05-08 19:27 | -16.02278 | -55.72874 | 8308 ft | 263 kts | 299° |
| 2026-05-08 19:27 | -16.01407 | -55.74552 | 8038 ft | 257 kts | 300° |
| 2026-05-08 19:27 | -16.00578 | -55.76149 | 7797 ft | 251 kts | 300° |
| 2026-05-08 19:27 | -15.99754 | -55.77734 | 7535 ft | 248 kts | 300° |
| 2026-05-08 19:28 | -15.98938 | -55.79304 | 7290 ft | 245 kts | 300° |
| 2026-05-08 19:28 | -15.98131 | -55.80857 | 7036 ft | 244 kts | 300° |
| 2026-05-08 19:28 | -15.97329 | -55.82399 | 6792 ft | 240 kts | 301° |
| 2026-05-08 19:28 | -15.96541 | -55.83915 | 6555 ft | 236 kts | 301° |
| 2026-05-08 19:29 | -15.95768 | -55.85398 | 6306 ft | 232 kts | 301° |
| 2026-05-08 19:29 | -15.95007 | -55.86861 | 6055 ft | 229 kts | 301° |
| 2026-05-08 19:29 | -15.94248 | -55.88321 | 5835 ft | 230 kts | 301° |
| 2026-05-08 19:29 | -15.93485 | -55.89788 | 5598 ft | 230 kts | 301° |
| 2026-05-08 19:30 | -15.92724 | -55.91249 | 5368 ft | 230 kts | 301° |
| 2026-05-08 19:30 | -15.91965 | -55.92709 | 5135 ft | 229 kts | 301° |
| 2026-05-08 19:30 | -15.91205 | -55.94168 | 4885 ft | 229 kts | 301° |
| 2026-05-08 19:30 | -15.90447 | -55.95624 | 4662 ft | 228 kts | 301° |
| 2026-05-08 19:31 | -15.89694 | -55.97069 | 4419 ft | 227 kts | 301° |
| 2026-05-08 19:31 | -15.88942 | -55.98507 | 4228 ft | 224 kts | 303° |
| 2026-05-08 19:31 | -15.87925 | -55.99610 | 4122 ft | 210 kts | 332° |
| 2026-05-08 19:31 | -15.86629 | -56.00307 | 4060 ft | 215 kts | 334° |
| 2026-05-08 19:32 | -15.85272 | -56.01032 | 4018 ft | 221 kts | 333° |
| 2026-05-08 19:32 | -15.83934 | -56.01746 | 3935 ft | 207 kts | 333° |
| 2026-05-08 19:32 | -15.82732 | -56.02387 | 3841 ft | 182 kts | 333° |
| 2026-05-08 19:32 | -15.81673 | -56.02952 | 3708 ft | 161 kts | 333° |
| 2026-05-08 19:33 | -15.80723 | -56.03458 | 3611 ft | 145 kts | 333° |
| 2026-05-08 19:33 | -15.79819 | -56.03936 | 3440 ft | 146 kts | 334° |
| 2026-05-08 19:33 | -15.78922 | -56.04395 | 3251 ft | 143 kts | 334° |
| 2026-05-08 19:33 | -15.78039 | -56.04859 | 3048 ft | 142 kts | 334° |
| 2026-05-08 19:34 | -15.77157 | -56.05328 | 2865 ft | 143 kts | 334° |
| 2026-05-08 19:34 | -15.76277 | -56.05798 | 2689 ft | 145 kts | 334° |
| 2026-05-08 19:34 | -15.75409 | -56.06262 | 2495 ft | 135 kts | 334° |
| 2026-05-08 19:34 | -15.74603 | -56.06693 | 2331 ft | 126 kts | 333° |
| 2026-05-08 19:35 | -15.73836 | -56.07103 | 2183 ft | 124 kts | 333° |
| 2026-05-08 19:35 | -15.73062 | -56.07517 | 2024 ft | 126 kts | 333° |
| 2026-05-08 19:35 | -15.72288 | -56.07931 | 1865 ft | 125 kts | 333° |
| 2026-05-08 19:35 | -15.71507 | -56.08349 | 1706 ft | 126 kts | 333° |
| 2026-05-08 19:36 | -15.70724 | -56.08768 | 1554 ft | 127 kts | 333° |
| 2026-05-08 19:36 | -15.69945 | -56.09185 | 1390 ft | 127 kts | 335° |
| 2026-05-08 19:36 | -15.69154 | -56.09609 | 1262 ft | 131 kts | 335° |
| 2026-05-08 19:36 | -15.68333 | -56.10053 | 1110 ft | 134 kts | 335° |
| 2026-05-08 19:37 | -15.67498 | -56.10487 | 916 ft | 132 kts | 334° |
| 2026-05-08 19:37 | -15.66672 | -56.10925 | 788 ft | 131 kts | 332° |
| 2026-05-08 19:37 | -15.65897 | -56.11349 | 615 ft | 118 kts | 332° |
| 2026-05-08 19:37 | -15.65274 | -56.11680 | 597 ft | 67 kts | 333° |
| 2026-05-08 19:38 | -15.65116 | -56.11764 | 597 ft | 13 kts | 333° |
| 2026-05-08 19:38 | -15.65066 | -56.11824 | 597 ft | 11 kts | 266° |
| 2026-05-08 19:38 | -15.65085 | -56.11873 | 596 ft | 0 kts | 245° |
| 2026-05-08 19:39 | -15.65089 | -56.11891 | 596 ft | 7 kts | 264° |
| 2026-05-08 19:39 | -15.65063 | -56.11925 | 596 ft | 5 kts | 306° |
| 2026-05-08 19:39 | -15.65071 | -56.11945 | 596 ft | 3 kts | 233° |
| 2026-05-08 19:39 | -15.65082 | -56.11964 | 596 ft | 0 kts | 240° |